sensor_id;sensor_type;location;lat;lon;timestamp;pressure;altitude;pressure_sealevel;temperature;humidity
84775;BME280;75005;50.966;11.344;2024-02-14T00:01:49;99520.28;;;5.17;76.09
84775;BME280;75005;50.966;11.344;2024-02-14T00:04:15;99535.31;;;5.22;76.41
84775;BME280;75005;50.966;11.344;2024-02-14T00:06:41;99518.53;;;5.18;75.98
84775;BME280;75005;50.966;11.344;2024-02-14T00:09:06;99530.84;;;5.24;76.15
84775;BME280;75005;50.966;11.344;2024-02-14T00:11:32;99531.50;;;5.35;74.71
84775;BME280;75005;50.966;11.344;2024-02-14T00:13:58;99527.72;;;5.30;75.12
84775;BME280;75005;50.966;11.344;2024-02-14T00:16:25;99530.16;;;5.31;75.51
84775;BME280;75005;50.966;11.344;2024-02-14T00:18:50;99529.59;;;5.37;75.30
84775;BME280;75005;50.966;11.344;2024-02-14T00:21:16;99527.56;;;5.41;74.85
84775;BME280;75005;50.966;11.344;2024-02-14T00:23:41;99528.53;;;5.40;75.06
84775;BME280;75005;50.966;11.344;2024-02-14T00:26:07;99527.03;;;5.37;74.84
84775;BME280;75005;50.966;11.344;2024-02-14T00:28:32;99531.66;;;5.34;75.05
84775;BME280;75005;50.966;11.344;2024-02-14T00:30:58;99534.63;;;5.39;75.34
84775;BME280;75005;50.966;11.344;2024-02-14T00:33:24;99523.22;;;5.42;74.71
84775;BME280;75005;50.966;11.344;2024-02-14T00:35:49;99515.22;;;5.35;73.95
84775;BME280;75005;50.966;11.344;2024-02-14T00:38:14;99517.38;;;5.40;74.22
84775;BME280;75005;50.966;11.344;2024-02-14T00:40:40;99516.44;;;5.41;74.51
84775;BME280;75005;50.966;11.344;2024-02-14T00:43:05;99513.84;;;5.41;74.63
84775;BME280;75005;50.966;11.344;2024-02-14T00:45:31;99516.28;;;5.42;73.67
84775;BME280;75005;50.966;11.344;2024-02-14T00:47:56;99515.75;;;5.48;72.89
84775;BME280;75005;50.966;11.344;2024-02-14T00:50:21;99510.56;;;5.48;73.50
84775;BME280;75005;50.966;11.344;2024-02-14T00:52:47;99513.84;;;5.41;72.97
84775;BME280;75005;50.966;11.344;2024-02-14T00:55:12;99516.28;;;5.42;73.57
84775;BME280;75005;50.966;11.344;2024-02-14T00:57:38;99512.09;;;5.41;73.77
84775;BME280;75005;50.966;11.344;2024-02-14T01:00:04;99511.53;;;5.47;72.21
84775;BME280;75005;50.966;11.344;2024-02-14T01:02:31;99513.56;;;5.44;73.26
84775;BME280;75005;50.966;11.344;2024-02-14T01:04:56;99514.66;;;5.41;73.23
84775;BME280;75005;50.966;11.344;2024-02-14T01:07:22;99523.09;;;5.43;73.48
84775;BME280;75005;50.966;11.344;2024-02-14T01:09:47;99508.53;;;5.42;73.22
84775;BME280;75005;50.966;11.344;2024-02-14T01:12:13;99509.91;;;5.46;71.37
84775;BME280;75005;50.966;11.344;2024-02-14T01:14:38;99513.41;;;5.55;72.12
84775;BME280;75005;50.966;11.344;2024-02-14T01:17:04;99515.31;;;5.53;72.38
84775;BME280;75005;50.966;11.344;2024-02-14T01:19:29;99519.00;;;5.50;71.81
84775;BME280;75005;50.966;11.344;2024-02-14T01:21:58;99517.09;;;5.52;71.79
84775;BME280;75005;50.966;11.344;2024-02-14T01:24:24;99511.09;;;5.52;72.11
84775;BME280;75005;50.966;11.344;2024-02-14T01:26:52;99502.84;;;5.48;72.35
84775;BME280;75005;50.966;11.344;2024-02-14T01:29:20;99505.53;;;5.56;72.19
84775;BME280;75005;50.966;11.344;2024-02-14T01:31:45;99509.16;;;5.63;71.93
84775;BME280;75005;50.966;11.344;2024-02-14T01:34:11;99493.66;;;5.63;71.37
84775;BME280;75005;50.966;11.344;2024-02-14T01:36:36;99491.06;;;5.63;70.59
84775;BME280;75005;50.966;11.344;2024-02-14T01:39:04;99494.47;;;5.64;71.12
84775;BME280;75005;50.966;11.344;2024-02-14T01:41:35;99494.19;;;5.67;71.41
84775;BME280;75005;50.966;11.344;2024-02-14T01:44:01;99500.31;;;5.66;71.70
84775;BME280;75005;50.966;11.344;2024-02-14T01:46:26;99502.75;;;5.67;71.09
84775;BME280;75005;50.966;11.344;2024-02-14T01:48:52;99483.06;;;5.66;70.40
84775;BME280;75005;50.966;11.344;2024-02-14T01:51:19;99501.50;;;5.71;71.20
84775;BME280;75005;50.966;11.344;2024-02-14T01:53:49;99486.69;;;5.74;69.99
84775;BME280;75005;50.966;11.344;2024-02-14T01:56:14;99485.22;;;5.71;71.01
84775;BME280;75005;50.966;11.344;2024-02-14T01:58:41;99488.19;;;5.76;70.84
84775;BME280;75005;50.966;11.344;2024-02-14T02:01:08;99482.75;;;5.69;70.74
84775;BME280;75005;50.966;11.344;2024-02-14T02:03:35;99474.16;;;5.79;69.56
84775;BME280;75005;50.966;11.344;2024-02-14T02:06:05;99470.25;;;5.75;70.84
84775;BME280;75005;50.966;11.344;2024-02-14T02:08:31;99463.59;;;5.72;70.07
84775;BME280;75005;50.966;11.344;2024-02-14T02:10:57;99473.78;;;5.74;70.10
84775;BME280;75005;50.966;11.344;2024-02-14T02:13:23;99468.34;;;5.77;70.25
84775;BME280;75005;50.966;11.344;2024-02-14T02:15:52;99465.09;;;5.75;70.23
84775;BME280;75005;50.966;11.344;2024-02-14T02:18:18;99461.84;;;5.72;70.99
84775;BME280;75005;50.966;11.344;2024-02-14T02:20:44;99475.41;;;5.75;70.38
84775;BME280;75005;50.966;11.344;2024-02-14T02:23:11;99469.69;;;5.81;70.88
84775;BME280;75005;50.966;11.344;2024-02-14T02:25:40;99464.50;;;5.81;70.85
84775;BME280;75005;50.966;11.344;2024-02-14T02:28:06;99476.19;;;5.85;69.08
84775;BME280;75005;50.966;11.344;2024-02-14T02:30:31;99464.50;;;5.90;69.06
84775;BME280;75005;50.966;11.344;2024-02-14T02:32:57;99462.59;;;5.83;69.75
84775;BME280;75005;50.966;11.344;2024-02-14T02:35:23;99464.81;;;5.78;69.59
84775;BME280;75005;50.966;11.344;2024-02-14T02:37:49;99458.81;;;5.77;70.64
84775;BME280;75005;50.966;11.344;2024-02-14T02:40:15;99456.38;;;5.76;70.83
84775;BME280;75005;50.966;11.344;2024-02-14T02:42:42;99459.06;;;5.84;70.80
84775;BME280;75005;50.966;11.344;2024-02-14T02:45:08;99451.06;;;5.77;70.46
84775;BME280;75005;50.966;11.344;2024-02-14T02:47:33;99445.09;;;5.77;70.35
84775;BME280;75005;50.966;11.344;2024-02-14T02:49:59;99451.72;;;5.89;70.54
84775;BME280;75005;50.966;11.344;2024-02-14T02:52:28;99452.94;;;5.85;70.24
84775;BME280;75005;50.966;11.344;2024-02-14T02:54:55;99446.81;;;5.86;70.05
84775;BME280;75005;50.966;11.344;2024-02-14T02:57:21;99446.00;;;5.85;69.80
84775;BME280;75005;50.966;11.344;2024-02-14T02:59:46;99430.50;;;5.85;69.83
84775;BME280;75005;50.966;11.344;2024-02-14T03:02:16;99431.91;;;5.80;70.71
84775;BME280;75005;50.966;11.344;2024-02-14T03:04:41;99439.22;;;5.84;70.73
84775;BME280;75005;50.966;11.344;2024-02-14T03:07:08;99434.78;;;5.77;71.32
84775;BME280;75005;50.966;11.344;2024-02-14T03:09:37;99424.81;;;5.82;71.22
84775;BME280;75005;50.966;11.344;2024-02-14T03:12:03;99418.84;;;5.81;71.27
84775;BME280;75005;50.966;11.344;2024-02-14T03:14:32;99421.16;;;5.84;70.96
84775;BME280;75005;50.966;11.344;2024-02-14T03:17:02;99424.13;;;5.89;70.62
84775;BME280;75005;50.966;11.344;2024-02-14T03:19:28;99424.72;;;6.01;69.92
84775;BME280;75005;50.966;11.344;2024-02-14T03:21:54;99420.06;;;6.04;70.23
84775;BME280;75005;50.966;11.344;2024-02-14T03:24:20;99420.06;;;6.04;70.50
84775;BME280;75005;50.966;11.344;2024-02-14T03:26:45;99402.31;;;6.19;68.74
84775;BME280;75005;50.966;11.344;2024-02-14T03:29:11;99414.34;;;6.28;69.09
84775;BME280;75005;50.966;11.344;2024-02-14T03:31:37;99412.72;;;6.27;68.78
84775;BME280;75005;50.966;11.344;2024-02-14T03:34:03;99415.88;;;6.39;68.12
84775;BME280;75005;50.966;11.344;2024-02-14T03:36:28;99408.72;;;6.33;68.04
84775;BME280;75005;50.966;11.344;2024-02-14T03:38:58;99417.06;;;6.45;67.91
84775;BME280;75005;50.966;11.344;2024-02-14T03:41:24;99412.78;;;6.35;68.87
84775;BME280;75005;50.966;11.344;2024-02-14T03:43:50;99410.34;;;6.34;68.64
84775;BME280;75005;50.966;11.344;2024-02-14T03:46:16;99410.34;;;6.34;68.69
84775;BME280;75005;50.966;11.344;2024-02-14T03:48:43;99409.91;;;6.38;68.68
84775;BME280;75005;50.966;11.344;2024-02-14T03:51:09;99410.41;;;6.42;68.55
84775;BME280;75005;50.966;11.344;2024-02-14T03:53:34;99404.34;;;6.33;68.23
84775;BME280;75005;50.966;11.344;2024-02-14T03:56:00;99410.66;;;6.31;68.52
84775;BME280;75005;50.966;11.344;2024-02-14T03:58:26;99396.81;;;6.40;68.54
84775;BME280;75005;50.966;11.344;2024-02-14T04:00:51;99389.22;;;6.38;68.76
84775;BME280;75005;50.966;11.344;2024-02-14T04:03:17;99390.47;;;6.34;69.11
84775;BME280;75005;50.966;11.344;2024-02-14T04:05:43;99381.50;;;6.21;69.71
84775;BME280;75005;50.966;11.344;2024-02-14T04:08:08;99389.47;;;6.27;69.67
84775;BME280;75005;50.966;11.344;2024-02-14T04:10:38;99379.13;;;6.27;68.87
84775;BME280;75005;50.966;11.344;2024-02-14T04:13:04;99384.59;;;6.24;69.56
84775;BME280;75005;50.966;11.344;2024-02-14T04:15:31;99371.72;;;6.32;68.88
84775;BME280;75005;50.966;11.344;2024-02-14T04:17:56;99353.94;;;6.29;69.15
84775;BME280;75005;50.966;11.344;2024-02-14T04:20:22;99365.09;;;6.30;69.38
84775;BME280;75005;50.966;11.344;2024-02-14T04:22:47;99364.28;;;6.29;69.99
84775;BME280;75005;50.966;11.344;2024-02-14T04:25:12;99365.28;;;6.36;69.25
84775;BME280;75005;50.966;11.344;2024-02-14T04:27:38;99359.38;;;6.44;68.46
84775;BME280;75005;50.966;11.344;2024-02-14T04:30:04;99360.91;;;6.55;69.14
84775;BME280;75005;50.966;11.344;2024-02-14T04:32:30;99362.19;;;6.51;69.06
84775;BME280;75005;50.966;11.344;2024-02-14T04:34:55;99364.69;;;6.60;69.05
84775;BME280;75005;50.966;11.344;2024-02-14T04:37:21;99355.97;;;6.61;69.17
84775;BME280;75005;50.966;11.344;2024-02-14T04:39:47;99362.75;;;6.62;69.66
84775;BME280;75005;50.966;11.344;2024-02-14T04:42:12;99366.81;;;6.65;68.72
84775;BME280;75005;50.966;11.344;2024-02-14T04:44:38;99364.22;;;6.65;69.47
84775;BME280;75005;50.966;11.344;2024-02-14T04:47:04;99361.34;;;6.68;68.80
84775;BME280;75005;50.966;11.344;2024-02-14T04:49:30;99360.06;;;6.72;69.38
84775;BME280;75005;50.966;11.344;2024-02-14T04:51:56;99358.03;;;6.84;69.24
84775;BME280;75005;50.966;11.344;2024-02-14T04:54:22;99364.69;;;6.86;69.18
84775;BME280;75005;50.966;11.344;2024-02-14T04:56:47;99359.16;;;6.81;69.44
84775;BME280;75005;50.966;11.344;2024-02-14T04:59:13;99358.19;;;6.82;69.88
84775;BME280;75005;50.966;11.344;2024-02-14T05:01:38;99353.16;;;6.81;69.61
84775;BME280;75005;50.966;11.344;2024-02-14T05:04:07;99358.47;;;6.79;70.24
84775;BME280;75005;50.966;11.344;2024-02-14T05:06:32;99352.72;;;6.85;70.01
84775;BME280;75005;50.966;11.344;2024-02-14T05:08:58;99354.63;;;6.83;70.16
84775;BME280;75005;50.966;11.344;2024-02-14T05:11:23;99350.72;;;6.79;70.64
84775;BME280;75005;50.966;11.344;2024-02-14T05:13:49;99344.50;;;6.90;69.39
84775;BME280;75005;50.966;11.344;2024-02-14T05:16:21;99349.50;;;6.91;70.08
84775;BME280;75005;50.966;11.344;2024-02-14T05:18:46;99346.56;;;6.86;70.18
84775;BME280;75005;50.966;11.344;2024-02-14T05:21:12;99344.94;;;6.85;70.00
84775;BME280;75005;50.966;11.344;2024-02-14T05:23:37;99352.91;;;6.92;70.24
84775;BME280;75005;50.966;11.344;2024-02-14T05:26:03;99347.63;;;7.01;68.87
84775;BME280;75005;50.966;11.344;2024-02-14T05:28:29;99347.47;;;7.03;69.58
84775;BME280;75005;50.966;11.344;2024-02-14T05:30:56;99349.72;;;6.98;70.08
84775;BME280;75005;50.966;11.344;2024-02-14T05:33:22;99346.34;;;7.05;70.04
84775;BME280;75005;50.966;11.344;2024-02-14T05:35:50;99345.88;;;7.10;68.82
84775;BME280;75005;50.966;11.344;2024-02-14T05:38:16;99348.75;;;7.07;70.08
84775;BME280;75005;50.966;11.344;2024-02-14T05:40:41;99349.94;;;7.13;69.83
84775;BME280;75005;50.966;11.344;2024-02-14T05:43:09;99349.63;;;7.16;69.14
84775;BME280;75005;50.966;11.344;2024-02-14T05:45:35;99346.06;;;7.17;68.77
84775;BME280;75005;50.966;11.344;2024-02-14T05:48:00;99343.31;;;7.18;69.74
84775;BME280;75005;50.966;11.344;2024-02-14T05:50:26;99347.38;;;7.21;68.78
84775;BME280;75005;50.966;11.344;2024-02-14T05:52:54;99347.72;;;7.26;69.36
84775;BME280;75005;50.966;11.344;2024-02-14T05:55:22;99343.16;;;7.20;69.53
84775;BME280;75005;50.966;11.344;2024-02-14T05:57:48;99344.78;;;7.21;69.78
84775;BME280;75005;50.966;11.344;2024-02-14T06:00:14;99341.72;;;7.17;70.14
84775;BME280;75005;50.966;11.344;2024-02-14T06:02:39;99346.38;;;7.14;69.99
84775;BME280;75005;50.966;11.344;2024-02-14T06:05:06;99352.72;;;7.19;70.36
84775;BME280;75005;50.966;11.344;2024-02-14T06:07:37;99352.72;;;7.19;70.14
84775;BME280;75005;50.966;11.344;2024-02-14T06:10:02;99339.41;;;7.14;69.91
84775;BME280;75005;50.966;11.344;2024-02-14T06:12:28;99349.94;;;7.13;69.93
84775;BME280;75005;50.966;11.344;2024-02-14T06:14:55;99341.16;;;7.05;69.97
84775;BME280;75005;50.966;11.344;2024-02-14T06:17:20;99346.03;;;7.09;70.52
84775;BME280;75005;50.966;11.344;2024-02-14T06:19:46;99351.19;;;7.00;70.97
84775;BME280;75005;50.966;11.344;2024-02-14T06:22:11;99341.13;;;6.97;71.32
84775;BME280;75005;50.966;11.344;2024-02-14T06:24:37;99340.19;;;6.98;71.55
84775;BME280;75005;50.966;11.344;2024-02-14T06:27:02;99343.44;;;7.09;71.70
84775;BME280;75005;50.966;11.344;2024-02-14T06:29:28;99332.91;;;7.02;72.16
84775;BME280;75005;50.966;11.344;2024-02-14T06:31:53;99347.81;;;7.08;71.71
84775;BME280;75005;50.966;11.344;2024-02-14T06:34:19;99352.53;;;7.13;71.35
84775;BME280;75005;50.966;11.344;2024-02-14T06:36:46;99358.34;;;7.15;71.22
84775;BME280;75005;50.966;11.344;2024-02-14T06:39:12;99355.00;;;7.22;71.44
84775;BME280;75005;50.966;11.344;2024-02-14T06:41:38;99346.91;;;7.25;71.00
84775;BME280;75005;50.966;11.344;2024-02-14T06:44:04;99361.47;;;7.26;70.86
84775;BME280;75005;50.966;11.344;2024-02-14T06:46:30;99360.69;;;7.26;71.46
84775;BME280;75005;50.966;11.344;2024-02-14T06:48:55;99352.75;;;7.27;72.09
84775;BME280;75005;50.966;11.344;2024-02-14T06:51:22;99341.19;;;7.14;71.62
84775;BME280;75005;50.966;11.344;2024-02-14T06:53:48;99350.53;;;7.07;73.09
84775;BME280;75005;50.966;11.344;2024-02-14T06:56:14;99353.94;;;7.07;72.99
84775;BME280;75005;50.966;11.344;2024-02-14T06:58:39;99357.03;;;7.02;72.82
84775;BME280;75005;50.966;11.344;2024-02-14T07:01:05;99364.13;;;7.09;72.93
84775;BME280;75005;50.966;11.344;2024-02-14T07:03:30;99353.47;;;7.03;73.21
84775;BME280;75005;50.966;11.344;2024-02-14T07:05:56;99354.44;;;7.11;72.73
84775;BME280;75005;50.966;11.344;2024-02-14T07:08:22;99359.00;;;7.17;72.83
84775;BME280;75005;50.966;11.344;2024-02-14T07:10:48;99359.44;;;7.04;72.31
84775;BME280;75005;50.966;11.344;2024-02-14T07:13:14;99354.09;;;7.05;73.02
84775;BME280;75005;50.966;11.344;2024-02-14T07:15:39;99357.84;;;7.03;73.72
84775;BME280;75005;50.966;11.344;2024-02-14T07:18:05;99360.88;;;7.07;72.96
84775;BME280;75005;50.966;11.344;2024-02-14T07:20:30;99350.53;;;7.07;73.42
84775;BME280;75005;50.966;11.344;2024-02-14T07:22:56;99355.91;;;7.13;73.19
84775;BME280;75005;50.966;11.344;2024-02-14T07:25:22;99370.22;;;7.25;72.31
84775;BME280;75005;50.966;11.344;2024-02-14T07:27:48;99381.47;;;7.42;71.92
84775;BME280;75005;50.966;11.344;2024-02-14T07:30:16;99374.34;;;7.52;72.57
84775;BME280;75005;50.966;11.344;2024-02-14T07:32:43;99367.75;;;7.58;71.07
84775;BME280;75005;50.966;11.344;2024-02-14T07:35:08;99367.91;;;7.56;71.79
84775;BME280;75005;50.966;11.344;2024-02-14T07:37:34;99376.47;;;7.57;71.90
84775;BME280;75005;50.966;11.344;2024-02-14T07:39:59;99380.22;;;7.62;72.02
84775;BME280;75005;50.966;11.344;2024-02-14T07:42:25;99381.56;;;7.75;71.17
84775;BME280;75005;50.966;11.344;2024-02-14T07:44:50;99383.34;;;7.82;71.03
84775;BME280;75005;50.966;11.344;2024-02-14T07:47:16;99379.44;;;7.70;71.39
84775;BME280;75005;50.966;11.344;2024-02-14T07:49:41;99396.13;;;7.84;71.96
84775;BME280;75005;50.966;11.344;2024-02-14T07:52:06;99394.88;;;7.96;70.89
84775;BME280;75005;50.966;11.344;2024-02-14T07:54:32;99399.72;;;7.91;70.86
84775;BME280;75005;50.966;11.344;2024-02-14T07:56:57;99399.25;;;7.95;70.84
84775;BME280;75005;50.966;11.344;2024-02-14T07:59:23;99394.22;;;7.94;71.47
84775;BME280;75005;50.966;11.344;2024-02-14T08:01:48;99402.63;;;7.88;72.23
84775;BME280;75005;50.966;11.344;2024-02-14T08:04:14;99410.75;;;7.93;71.65
84775;BME280;75005;50.966;11.344;2024-02-14T08:06:40;99408.84;;;8.03;71.22
84775;BME280;75005;50.966;11.344;2024-02-14T08:09:06;99403.16;;;7.99;70.99
84775;BME280;75005;50.966;11.344;2024-02-14T08:11:35;99419.66;;;7.98;71.68
84775;BME280;75005;50.966;11.344;2024-02-14T08:14:01;99419.47;;;7.92;72.72
84775;BME280;75005;50.966;11.344;2024-02-14T08:16:27;99406.84;;;7.89;71.01
84775;BME280;75005;50.966;11.344;2024-02-14T08:18:52;99410.75;;;7.93;71.93
84775;BME280;75005;50.966;11.344;2024-02-14T08:21:26;99409.81;;;8.02;73.01
84775;BME280;75005;50.966;11.344;2024-02-14T08:23:55;99403.78;;;7.93;71.80
84775;BME280;75005;50.966;11.344;2024-02-14T08:26:21;99405.41;;;7.94;72.49
84775;BME280;75005;50.966;11.344;2024-02-14T08:28:49;99399.78;;;8.15;71.85
84775;BME280;75005;50.966;11.344;2024-02-14T08:31:14;99396.69;;;8.12;71.46
84775;BME280;75005;50.966;11.344;2024-02-14T08:33:40;99420.84;;;8.28;70.59
84775;BME280;75005;50.966;11.344;2024-02-14T08:36:06;99415.00;;;8.10;72.29
84775;BME280;75005;50.966;11.344;2024-02-14T08:38:32;99425.34;;;8.18;71.45
84775;BME280;75005;50.966;11.344;2024-02-14T08:40:58;99416.47;;;8.13;71.79
84775;BME280;75005;50.966;11.344;2024-02-14T08:43:23;99413.06;;;8.20;72.00
84775;BME280;75005;50.966;11.344;2024-02-14T08:45:53;99413.38;;;8.25;72.16
84775;BME280;75005;50.966;11.344;2024-02-14T08:48:18;99421.25;;;8.50;70.51
84775;BME280;75005;50.966;11.344;2024-02-14T08:50:44;99425.75;;;8.64;70.46
84775;BME280;75005;50.966;11.344;2024-02-14T08:53:11;99431.44;;;8.67;69.98
84775;BME280;75005;50.966;11.344;2024-02-14T08:55:39;99431.91;;;8.71;70.08
84775;BME280;75005;50.966;11.344;2024-02-14T08:58:04;99431.91;;;8.63;70.79
84775;BME280;75005;50.966;11.344;2024-02-14T09:00:29;99423.16;;;8.72;69.86
84775;BME280;75005;50.966;11.344;2024-02-14T09:02:56;99427.53;;;8.55;70.84
84775;BME280;75005;50.966;11.344;2024-02-14T09:05:21;99422.50;;;8.62;71.12
84775;BME280;75005;50.966;11.344;2024-02-14T09:07:47;99422.19;;;8.73;70.66
84775;BME280;75005;50.966;11.344;2024-02-14T09:10:13;99431.59;;;8.74;70.13
84775;BME280;75005;50.966;11.344;2024-02-14T09:12:39;99434.53;;;8.79;70.83
84775;BME280;75005;50.966;11.344;2024-02-14T09:15:06;99425.59;;;8.74;71.00
84775;BME280;75005;50.966;11.344;2024-02-14T09:17:32;99431.44;;;8.76;71.05
84775;BME280;75005;50.966;11.344;2024-02-14T09:19:57;99426.72;;;8.71;70.71
84775;BME280;75005;50.966;11.344;2024-02-14T09:22:23;99427.88;;;8.85;70.99
84775;BME280;75005;50.966;11.344;2024-02-14T09:24:49;99414.72;;;8.86;70.93
84775;BME280;75005;50.966;11.344;2024-02-14T09:27:15;99413.13;;;8.69;71.42
84775;BME280;75005;50.966;11.344;2024-02-14T09:29:40;99407.59;;;8.72;71.36
84775;BME280;75005;50.966;11.344;2024-02-14T09:32:06;99398.34;;;8.86;71.08
84775;BME280;75005;50.966;11.344;2024-02-14T09:34:31;99406.59;;;8.97;70.89
84775;BME280;75005;50.966;11.344;2024-02-14T09:36:57;99389.88;;;9.00;70.30
84775;BME280;75005;50.966;11.344;2024-02-14T09:39:24;99398.63;;;8.99;70.94
84775;BME280;75005;50.966;11.344;2024-02-14T09:41:57;99408.53;;;8.95;71.07
84775;BME280;75005;50.966;11.344;2024-02-14T09:44:29;99405.44;;;9.08;71.14
84775;BME280;75005;50.966;11.344;2024-02-14T09:46:55;99417.91;;;9.21;70.77
84775;BME280;75005;50.966;11.344;2024-02-14T09:49:22;99422.44;;;9.27;70.83
84775;BME280;75005;50.966;11.344;2024-02-14T09:51:48;99410.88;;;9.29;70.32
84775;BME280;75005;50.966;11.344;2024-02-14T09:54:15;99413.03;;;9.18;70.66
84775;BME280;75005;50.966;11.344;2024-02-14T09:56:42;99413.06;;;9.01;71.06
84775;BME280;75005;50.966;11.344;2024-02-14T09:59:09;99425.41;;;8.99;70.74
84775;BME280;75005;50.966;11.344;2024-02-14T10:01:35;99416.50;;;8.86;72.15
84775;BME280;75005;50.966;11.344;2024-02-14T10:04:00;99413.09;;;8.85;72.71
84775;BME280;75005;50.966;11.344;2024-02-14T10:06:25;99420.44;;;9.29;71.92
84775;BME280;75005;50.966;11.344;2024-02-14T10:08:51;99414.25;;;9.38;71.37
84775;BME280;75005;50.966;11.344;2024-02-14T10:11:17;99425.41;;;9.55;70.26
84775;BME280;75005;50.966;11.344;2024-02-14T10:13:47;99436.75;;;10.01;68.66
84775;BME280;75005;50.966;11.344;2024-02-14T10:16:14;99435.56;;;10.57;66.86
84775;BME280;75005;50.966;11.344;2024-02-14T10:18:39;99428.34;;;10.67;66.91
84775;BME280;75005;50.966;11.344;2024-02-14T10:21:05;99440.38;;;10.15;67.70
84775;BME280;75005;50.966;11.344;2024-02-14T10:23:31;99426.03;;;10.27;67.68
84775;BME280;75005;50.966;11.344;2024-02-14T10:25:58;99426.91;;;10.11;68.59
84775;BME280;75005;50.966;11.344;2024-02-14T10:28:23;99435.41;;;10.05;68.11
84775;BME280;75005;50.966;11.344;2024-02-14T10:30:49;99439.28;;;10.09;68.30
84775;BME280;75005;50.966;11.344;2024-02-14T10:33:16;99454.94;;;10.01;68.41
84775;BME280;75005;50.966;11.344;2024-02-14T10:35:42;99444.91;;;9.90;69.08
84775;BME280;75005;50.966;11.344;2024-02-14T10:38:08;99450.34;;;10.03;69.26
84775;BME280;75005;50.966;11.344;2024-02-14T10:40:35;99463.75;;;9.92;69.70
84775;BME280;75005;50.966;11.344;2024-02-14T10:43:01;99455.38;;;9.73;71.03
84775;BME280;75005;50.966;11.344;2024-02-14T10:45:27;99450.72;;;10.00;69.31
84775;BME280;75005;50.966;11.344;2024-02-14T10:47:53;99467.06;;;10.09;69.18
84775;BME280;75005;50.966;11.344;2024-02-14T10:50:24;99455.13;;;9.99;69.25
84775;BME280;75005;50.966;11.344;2024-02-14T10:52:53;99461.13;;;10.00;68.88
84775;BME280;75005;50.966;11.344;2024-02-14T10:55:24;99459.50;;;9.99;69.76
84775;BME280;75005;50.966;11.344;2024-02-14T10:57:53;99456.38;;;10.03;70.02
84775;BME280;75005;50.966;11.344;2024-02-14T11:00:20;99455.88;;;10.39;69.44
84775;BME280;75005;50.966;11.344;2024-02-14T11:02:47;99450.19;;;10.58;68.53
84775;BME280;75005;50.966;11.344;2024-02-14T11:05:14;99446.44;;;10.61;68.50
84775;BME280;75005;50.966;11.344;2024-02-14T11:07:46;99443.25;;;10.51;68.26
84775;BME280;75005;50.966;11.344;2024-02-14T11:10:21;99443.91;;;10.53;68.19
84775;BME280;75005;50.966;11.344;2024-02-14T11:12:48;99446.50;;;10.53;69.77
84775;BME280;75005;50.966;11.344;2024-02-14T11:15:23;99450.31;;;10.42;69.00
84775;BME280;75005;50.966;11.344;2024-02-14T11:18:04;99445.28;;;10.63;68.58
84775;BME280;75005;50.966;11.344;2024-02-14T11:20:35;99447.13;;;10.55;69.08
84775;BME280;75005;50.966;11.344;2024-02-14T11:23:06;99444.75;;;10.45;70.31
84775;BME280;75005;50.966;11.344;2024-02-14T11:25:34;99440.38;;;10.68;69.02
84775;BME280;75005;50.966;11.344;2024-02-14T11:28:12;99429.84;;;10.62;67.90
84775;BME280;75005;50.966;11.344;2024-02-14T11:30:39;99441.47;;;10.28;69.31
84775;BME280;75005;50.966;11.344;2024-02-14T11:35:41;99448.47;;;10.51;69.95
84775;BME280;75005;50.966;11.344;2024-02-14T11:38:06;99444.13;;;11.03;68.18
84775;BME280;75005;50.966;11.344;2024-02-14T11:40:32;99441.88;;;10.63;68.03
84775;BME280;75005;50.966;11.344;2024-02-14T11:42:58;99439.38;;;10.69;68.71
84775;BME280;75005;50.966;11.344;2024-02-14T11:45:23;99443.66;;;11.00;68.38
84775;BME280;75005;50.966;11.344;2024-02-14T11:47:49;99442.81;;;11.37;67.60
84775;BME280;75005;50.966;11.344;2024-02-14T11:50:17;99447.09;;;11.30;67.58
84775;BME280;75005;50.966;11.344;2024-02-14T11:52:43;99449.53;;;11.31;67.28
84775;BME280;75005;50.966;11.344;2024-02-14T11:55:09;99443.94;;;11.20;67.67
84775;BME280;75005;50.966;11.344;2024-02-14T11:57:35;99456.78;;;10.69;68.69
84775;BME280;75005;50.966;11.344;2024-02-14T12:00:01;99456.31;;;10.43;68.98
84775;BME280;75005;50.966;11.344;2024-02-14T12:02:27;99454.25;;;10.61;69.52
84775;BME280;75005;50.966;11.344;2024-02-14T12:04:53;99453.84;;;10.72;68.35
84775;BME280;75005;50.966;11.344;2024-02-14T12:07:20;99456.16;;;10.67;69.54
84775;BME280;75005;50.966;11.344;2024-02-14T12:09:47;99468.72;;;10.63;69.18
84775;BME280;75005;50.966;11.344;2024-02-14T12:12:15;99457.50;;;10.63;69.43
84775;BME280;75005;50.966;11.344;2024-02-14T12:14:44;99461.88;;;10.62;70.45
84775;BME280;75005;50.966;11.344;2024-02-14T12:17:16;99459.25;;;10.85;68.70
84775;BME280;75005;50.966;11.344;2024-02-14T12:19:44;99458.44;;;10.85;68.47
84775;BME280;75005;50.966;11.344;2024-02-14T12:22:10;99448.53;;;10.80;69.02
84775;BME280;75005;50.966;11.344;2024-02-14T12:24:44;99464.25;;;10.72;69.10
84775;BME280;75005;50.966;11.344;2024-02-14T12:27:09;99465.06;;;10.50;70.65
84775;BME280;75005;50.966;11.344;2024-02-14T12:29:35;99462.13;;;10.90;69.40
84775;BME280;75005;50.966;11.344;2024-02-14T12:32:05;99472.06;;;10.49;70.56
84775;BME280;75005;50.966;11.344;2024-02-14T12:34:31;99467.78;;;10.56;71.25
84775;BME280;75005;50.966;11.344;2024-02-14T12:36:58;99474.66;;;10.26;71.24
84775;BME280;75005;50.966;11.344;2024-02-14T12:39:27;99460.06;;;10.40;75.41
84775;BME280;75005;50.966;11.344;2024-02-14T12:41:54;99461.44;;;10.96;69.94
84775;BME280;75005;50.966;11.344;2024-02-14T12:44:20;99466.59;;;10.82;68.89
84775;BME280;75005;50.966;11.344;2024-02-14T12:46:45;99457.78;;;11.05;69.42
84775;BME280;75005;50.966;11.344;2024-02-14T12:49:10;99455.34;;;11.19;68.06
84775;BME280;75005;50.966;11.344;2024-02-14T12:51:36;99459.88;;;11.39;67.77
84775;BME280;75005;50.966;11.344;2024-02-14T12:54:04;99455.28;;;11.71;67.21
84775;BME280;75005;50.966;11.344;2024-02-14T12:56:30;99453.38;;;11.65;67.52